sensor_id;sensor_type;location;lat;lon;timestamp;P1;durP1;ratioP1;P2;durP2;ratioP2
16310;SDS011;8264;48.510;8.872;2024-03-02T00:00:50;7.37;;;6.23;;
16310;SDS011;8264;48.510;8.872;2024-03-02T00:03:20;8.67;;;7.07;;
16310;SDS011;8264;48.510;8.872;2024-03-02T00:05:50;9.10;;;7.57;;
16310;SDS011;8264;48.510;8.872;2024-03-02T00:08:23;10.90;;;7.67;;
16310;SDS011;8264;48.510;8.872;2024-03-02T00:10:51;11.63;;;7.97;;
16310;SDS011;8264;48.510;8.872;2024-03-02T00:13:21;9.10;;;7.63;;
16310;SDS011;8264;48.510;8.872;2024-03-02T00:15:51;11.17;;;8.00;;
16310;SDS011;8264;48.510;8.872;2024-03-02T00:18:19;11.50;;;7.77;;
16310;SDS011;8264;48.510;8.872;2024-03-02T00:20:47;9.77;;;7.83;;
16310;SDS011;8264;48.510;8.872;2024-03-02T00:23:14;9.07;;;7.23;;
16310;SDS011;8264;48.510;8.872;2024-03-02T00:25:42;9.87;;;7.90;;
16310;SDS011;8264;48.510;8.872;2024-03-02T00:28:13;11.40;;;8.37;;
16310;SDS011;8264;48.510;8.872;2024-03-02T00:30:56;10.20;;;7.47;;
16310;SDS011;8264;48.510;8.872;2024-03-02T00:33:27;11.00;;;7.80;;
16310;SDS011;8264;48.510;8.872;2024-03-02T00:35:57;10.77;;;7.20;;
16310;SDS011;8264;48.510;8.872;2024-03-02T00:38:24;10.10;;;7.23;;
16310;SDS011;8264;48.510;8.872;2024-03-02T00:40:52;10.50;;;6.97;;
16310;SDS011;8264;48.510;8.872;2024-03-02T00:46:15;11.00;;;8.43;;
16310;SDS011;8264;48.510;8.872;2024-03-02T00:48:47;8.73;;;7.17;;
16310;SDS011;8264;48.510;8.872;2024-03-02T00:51:16;12.70;;;8.23;;
16310;SDS011;8264;48.510;8.872;2024-03-02T00:53:43;12.13;;;8.90;;
16310;SDS011;8264;48.510;8.872;2024-03-02T00:56:10;10.30;;;8.00;;
16310;SDS011;8264;48.510;8.872;2024-03-02T00:58:38;12.97;;;8.60;;
16310;SDS011;8264;48.510;8.872;2024-03-02T01:01:04;10.27;;;8.50;;
16310;SDS011;8264;48.510;8.872;2024-03-02T01:03:33;12.37;;;9.13;;
16310;SDS011;8264;48.510;8.872;2024-03-02T01:06:00;13.63;;;8.97;;
16310;SDS011;8264;48.510;8.872;2024-03-02T01:08:29;13.60;;;10.13;;
16310;SDS011;8264;48.510;8.872;2024-03-02T01:10:57;12.70;;;9.50;;
16310;SDS011;8264;48.510;8.872;2024-03-02T01:13:24;12.73;;;9.80;;
16310;SDS011;8264;48.510;8.872;2024-03-02T01:15:53;14.23;;;10.20;;
16310;SDS011;8264;48.510;8.872;2024-03-02T01:18:19;15.07;;;10.67;;
16310;SDS011;8264;48.510;8.872;2024-03-02T01:20:49;14.60;;;11.27;;
16310;SDS011;8264;48.510;8.872;2024-03-02T01:23:17;14.10;;;9.73;;
16310;SDS011;8264;48.510;8.872;2024-03-02T01:25:45;12.73;;;9.90;;
16310;SDS011;8264;48.510;8.872;2024-03-02T01:28:12;13.53;;;9.93;;
16310;SDS011;8264;48.510;8.872;2024-03-02T01:30:42;12.20;;;8.57;;
16310;SDS011;8264;48.510;8.872;2024-03-02T01:33:12;13.00;;;9.90;;
16310;SDS011;8264;48.510;8.872;2024-03-02T01:35:39;11.73;;;8.73;;
16310;SDS011;8264;48.510;8.872;2024-03-02T01:38:07;13.30;;;9.40;;
16310;SDS011;8264;48.510;8.872;2024-03-02T01:40:34;14.57;;;10.33;;
16310;SDS011;8264;48.510;8.872;2024-03-02T01:43:01;13.87;;;9.53;;
16310;SDS011;8264;48.510;8.872;2024-03-02T01:45:30;12.60;;;9.23;;
16310;SDS011;8264;48.510;8.872;2024-03-02T01:47:57;11.50;;;9.20;;
16310;SDS011;8264;48.510;8.872;2024-03-02T01:50:27;12.17;;;9.80;;
16310;SDS011;8264;48.510;8.872;2024-03-02T01:52:57;11.50;;;9.20;;
16310;SDS011;8264;48.510;8.872;2024-03-02T01:55:26;13.33;;;9.83;;
16310;SDS011;8264;48.510;8.872;2024-03-02T01:57:54;13.20;;;9.50;;
16310;SDS011;8264;48.510;8.872;2024-03-02T02:00:22;13.87;;;9.90;;
16310;SDS011;8264;48.510;8.872;2024-03-02T02:02:51;12.73;;;10.10;;
16310;SDS011;8264;48.510;8.872;2024-03-02T02:05:18;12.37;;;9.87;;
16310;SDS011;8264;48.510;8.872;2024-03-02T02:07:45;10.30;;;8.53;;
16310;SDS011;8264;48.510;8.872;2024-03-02T02:10:12;11.47;;;8.73;;
16310;SDS011;8264;48.510;8.872;2024-03-02T02:12:41;12.07;;;8.37;;
16310;SDS011;8264;48.510;8.872;2024-03-02T02:15:23;10.50;;;8.57;;
16310;SDS011;8264;48.510;8.872;2024-03-02T02:17:51;13.43;;;7.90;;
16310;SDS011;8264;48.510;8.872;2024-03-02T02:20:18;12.10;;;9.33;;
16310;SDS011;8264;48.510;8.872;2024-03-02T02:23:00;14.13;;;10.73;;
16310;SDS011;8264;48.510;8.872;2024-03-02T02:25:27;18.57;;;11.20;;
16310;SDS011;8264;48.510;8.872;2024-03-02T02:27:54;15.37;;;11.40;;
16310;SDS011;8264;48.510;8.872;2024-03-02T02:30:25;16.17;;;11.53;;
16310;SDS011;8264;48.510;8.872;2024-03-02T02:32:53;15.73;;;11.37;;
16310;SDS011;8264;48.510;8.872;2024-03-02T02:35:20;18.30;;;11.93;;
16310;SDS011;8264;48.510;8.872;2024-03-02T02:37:49;13.27;;;9.40;;
16310;SDS011;8264;48.510;8.872;2024-03-02T02:40:18;12.10;;;9.20;;
16310;SDS011;8264;48.510;8.872;2024-03-02T02:42:45;11.57;;;9.00;;
16310;SDS011;8264;48.510;8.872;2024-03-02T02:45:11;13.20;;;9.20;;
16310;SDS011;8264;48.510;8.872;2024-03-02T02:47:41;11.57;;;8.37;;
16310;SDS011;8264;48.510;8.872;2024-03-02T02:50:08;13.40;;;9.07;;
16310;SDS011;8264;48.510;8.872;2024-03-02T02:52:36;11.97;;;9.13;;
16310;SDS011;8264;48.510;8.872;2024-03-02T02:55:05;11.80;;;9.17;;
16310;SDS011;8264;48.510;8.872;2024-03-02T02:57:34;12.23;;;9.70;;
16310;SDS011;8264;48.510;8.872;2024-03-02T03:00:03;12.87;;;9.67;;
16310;SDS011;8264;48.510;8.872;2024-03-02T03:02:35;12.07;;;8.70;;
16310;SDS011;8264;48.510;8.872;2024-03-02T03:05:02;13.47;;;8.70;;
16310;SDS011;8264;48.510;8.872;2024-03-02T03:07:31;12.93;;;8.47;;
16310;SDS011;8264;48.510;8.872;2024-03-02T03:09:57;12.00;;;8.83;;
16310;SDS011;8264;48.510;8.872;2024-03-02T03:12:23;10.07;;;8.03;;
16310;SDS011;8264;48.510;8.872;2024-03-02T03:14:51;13.07;;;8.90;;
16310;SDS011;8264;48.510;8.872;2024-03-02T03:17:20;12.17;;;9.00;;
16310;SDS011;8264;48.510;8.872;2024-03-02T03:19:50;12.73;;;9.00;;
16310;SDS011;8264;48.510;8.872;2024-03-02T03:22:17;12.10;;;8.33;;
16310;SDS011;8264;48.510;8.872;2024-03-02T03:24:43;11.80;;;8.83;;
16310;SDS011;8264;48.510;8.872;2024-03-02T03:27:10;12.77;;;9.57;;
16310;SDS011;8264;48.510;8.872;2024-03-02T03:29:37;12.33;;;9.40;;
16310;SDS011;8264;48.510;8.872;2024-03-02T03:32:06;11.73;;;9.27;;
16310;SDS011;8264;48.510;8.872;2024-03-02T03:34:33;11.77;;;9.23;;
16310;SDS011;8264;48.510;8.872;2024-03-02T03:37:00;11.70;;;8.93;;
16310;SDS011;8264;48.510;8.872;2024-03-02T03:39:26;14.10;;;9.97;;
16310;SDS011;8264;48.510;8.872;2024-03-02T03:41:53;15.30;;;10.03;;
16310;SDS011;8264;48.510;8.872;2024-03-02T03:44:20;12.90;;;9.80;;
16310;SDS011;8264;48.510;8.872;2024-03-02T03:46:47;11.60;;;8.30;;
16310;SDS011;8264;48.510;8.872;2024-03-02T03:49:15;13.70;;;9.00;;
16310;SDS011;8264;48.510;8.872;2024-03-02T03:51:42;12.33;;;9.83;;
16310;SDS011;8264;48.510;8.872;2024-03-02T03:54:09;13.93;;;10.03;;
16310;SDS011;8264;48.510;8.872;2024-03-02T03:56:36;12.80;;;9.37;;
16310;SDS011;8264;48.510;8.872;2024-03-02T03:59:03;13.17;;;8.90;;
16310;SDS011;8264;48.510;8.872;2024-03-02T04:01:30;12.33;;;9.10;;
16310;SDS011;8264;48.510;8.872;2024-03-02T04:03:56;12.37;;;9.27;;
16310;SDS011;8264;48.510;8.872;2024-03-02T04:06:25;11.73;;;9.03;;
16310;SDS011;8264;48.510;8.872;2024-03-02T04:08:52;12.87;;;9.47;;
16310;SDS011;8264;48.510;8.872;2024-03-02T04:11:19;14.47;;;9.67;;
16310;SDS011;8264;48.510;8.872;2024-03-02T04:13:46;11.43;;;8.50;;
16310;SDS011;8264;48.510;8.872;2024-03-02T04:16:13;11.83;;;8.83;;
16310;SDS011;8264;48.510;8.872;2024-03-02T04:18:40;12.77;;;8.13;;
16310;SDS011;8264;48.510;8.872;2024-03-02T04:21:09;11.33;;;8.33;;
16310;SDS011;8264;48.510;8.872;2024-03-02T04:23:37;11.77;;;9.23;;
16310;SDS011;8264;48.510;8.872;2024-03-02T04:26:04;11.50;;;9.50;;
16310;SDS011;8264;48.510;8.872;2024-03-02T04:28:31;11.27;;;8.63;;
16310;SDS011;8264;48.510;8.872;2024-03-02T04:30:58;12.13;;;9.07;;
16310;SDS011;8264;48.510;8.872;2024-03-02T04:33:26;10.47;;;7.87;;
16310;SDS011;8264;48.510;8.872;2024-03-02T04:35:53;11.70;;;8.37;;
16310;SDS011;8264;48.510;8.872;2024-03-02T04:38:19;14.37;;;10.03;;
16310;SDS011;8264;48.510;8.872;2024-03-02T04:40:50;13.20;;;9.63;;
16310;SDS011;8264;48.510;8.872;2024-03-02T04:43:17;11.60;;;8.67;;
16310;SDS011;8264;48.510;8.872;2024-03-02T04:45:47;8.97;;;7.27;;
16310;SDS011;8264;48.510;8.872;2024-03-02T04:48:13;11.27;;;8.43;;
16310;SDS011;8264;48.510;8.872;2024-03-02T04:50:40;10.23;;;7.87;;
16310;SDS011;8264;48.510;8.872;2024-03-02T04:53:07;11.23;;;8.10;;
16310;SDS011;8264;48.510;8.872;2024-03-02T04:55:33;11.23;;;8.37;;
16310;SDS011;8264;48.510;8.872;2024-03-02T04:58:45;10.30;;;7.37;;
16310;SDS011;8264;48.510;8.872;2024-03-02T05:01:12;12.53;;;8.63;;
16310;SDS011;8264;48.510;8.872;2024-03-02T05:03:39;29.80;;;11.50;;
16310;SDS011;8264;48.510;8.872;2024-03-02T05:06:06;13.40;;;10.40;;
16310;SDS011;8264;48.510;8.872;2024-03-02T05:08:33;11.03;;;8.87;;
16310;SDS011;8264;48.510;8.872;2024-03-02T05:11:00;10.83;;;8.43;;
16310;SDS011;8264;48.510;8.872;2024-03-02T05:13:49;11.00;;;8.43;;
16310;SDS011;8264;48.510;8.872;2024-03-02T05:16:15;12.80;;;9.50;;
16310;SDS011;8264;48.510;8.872;2024-03-02T05:18:41;11.83;;;8.87;;
16310;SDS011;8264;48.510;8.872;2024-03-02T05:21:08;11.67;;;8.80;;
16310;SDS011;8264;48.510;8.872;2024-03-02T05:23:37;13.23;;;8.60;;
16310;SDS011;8264;48.510;8.872;2024-03-02T05:26:05;14.23;;;9.80;;
16310;SDS011;8264;48.510;8.872;2024-03-02T05:28:32;12.50;;;8.80;;
16310;SDS011;8264;48.510;8.872;2024-03-02T05:31:00;15.30;;;11.00;;
16310;SDS011;8264;48.510;8.872;2024-03-02T05:33:27;15.23;;;10.70;;
16310;SDS011;8264;48.510;8.872;2024-03-02T05:35:55;17.50;;;12.33;;
16310;SDS011;8264;48.510;8.872;2024-03-02T05:38:21;17.40;;;11.60;;
16310;SDS011;8264;48.510;8.872;2024-03-02T05:40:48;14.47;;;10.27;;
16310;SDS011;8264;48.510;8.872;2024-03-02T05:43:15;14.50;;;10.80;;
16310;SDS011;8264;48.510;8.872;2024-03-02T05:45:42;15.33;;;10.83;;
16310;SDS011;8264;48.510;8.872;2024-03-02T05:48:10;18.37;;;12.33;;
16310;SDS011;8264;48.510;8.872;2024-03-02T05:50:37;20.07;;;12.37;;
16310;SDS011;8264;48.510;8.872;2024-03-02T05:53:03;17.77;;;11.00;;
16310;SDS011;8264;48.510;8.872;2024-03-02T05:55:30;14.47;;;9.63;;
16310;SDS011;8264;48.510;8.872;2024-03-02T05:57:57;16.90;;;11.53;;
16310;SDS011;8264;48.510;8.872;2024-03-02T06:00:40;13.13;;;10.00;;
16310;SDS011;8264;48.510;8.872;2024-03-02T06:03:07;15.70;;;10.83;;
16310;SDS011;8264;48.510;8.872;2024-03-02T06:05:36;15.17;;;10.67;;
16310;SDS011;8264;48.510;8.872;2024-03-02T06:08:02;14.70;;;8.87;;
16310;SDS011;8264;48.510;8.872;2024-03-02T06:10:30;18.43;;;10.43;;
16310;SDS011;8264;48.510;8.872;2024-03-02T06:12:56;16.03;;;11.50;;
16310;SDS011;8264;48.510;8.872;2024-03-02T06:15:24;19.23;;;13.07;;
16310;SDS011;8264;48.510;8.872;2024-03-02T06:17:50;17.43;;;12.30;;
16310;SDS011;8264;48.510;8.872;2024-03-02T06:20:17;16.53;;;11.67;;
16310;SDS011;8264;48.510;8.872;2024-03-02T06:22:45;17.13;;;12.80;;
16310;SDS011;8264;48.510;8.872;2024-03-02T06:25:12;18.23;;;12.87;;
16310;SDS011;8264;48.510;8.872;2024-03-02T06:27:39;18.27;;;12.57;;
16310;SDS011;8264;48.510;8.872;2024-03-02T06:30:06;17.87;;;13.20;;
16310;SDS011;8264;48.510;8.872;2024-03-02T06:32:34;14.63;;;10.80;;
16310;SDS011;8264;48.510;8.872;2024-03-02T06:35:00;15.47;;;11.07;;
16310;SDS011;8264;48.510;8.872;2024-03-02T06:37:29;14.20;;;10.97;;
16310;SDS011;8264;48.510;8.872;2024-03-02T06:39:57;18.87;;;12.23;;
16310;SDS011;8264;48.510;8.872;2024-03-02T06:42:24;15.07;;;11.47;;
16310;SDS011;8264;48.510;8.872;2024-03-02T06:44:51;15.00;;;10.60;;
16310;SDS011;8264;48.510;8.872;2024-03-02T06:47:18;16.57;;;11.00;;
16310;SDS011;8264;48.510;8.872;2024-03-02T06:49:45;14.53;;;10.97;;
16310;SDS011;8264;48.510;8.872;2024-03-02T06:52:12;15.93;;;10.93;;
16310;SDS011;8264;48.510;8.872;2024-03-02T06:54:39;17.53;;;11.20;;
16310;SDS011;8264;48.510;8.872;2024-03-02T06:57:07;18.27;;;14.00;;
16310;SDS011;8264;48.510;8.872;2024-03-02T06:59:36;16.83;;;12.57;;
16310;SDS011;8264;48.510;8.872;2024-03-02T07:02:05;18.97;;;14.33;;
16310;SDS011;8264;48.510;8.872;2024-03-02T07:04:34;20.27;;;14.20;;
16310;SDS011;8264;48.510;8.872;2024-03-02T07:07:00;20.63;;;14.43;;
16310;SDS011;8264;48.510;8.872;2024-03-02T07:09:27;20.27;;;14.77;;
16310;SDS011;8264;48.510;8.872;2024-03-02T07:11:54;22.83;;;15.97;;
16310;SDS011;8264;48.510;8.872;2024-03-02T07:14:22;17.43;;;13.10;;
16310;SDS011;8264;48.510;8.872;2024-03-02T07:17:09;21.00;;;14.40;;
16310;SDS011;8264;48.510;8.872;2024-03-02T07:19:37;21.23;;;14.87;;
16310;SDS011;8264;48.510;8.872;2024-03-02T07:22:05;22.10;;;15.33;;
16310;SDS011;8264;48.510;8.872;2024-03-02T07:24:38;18.87;;;13.60;;
16310;SDS011;8264;48.510;8.872;2024-03-02T07:27:07;18.83;;;11.70;;
16310;SDS011;8264;48.510;8.872;2024-03-02T07:29:35;16.67;;;12.63;;
16310;SDS011;8264;48.510;8.872;2024-03-02T07:32:02;16.53;;;11.57;;
16310;SDS011;8264;48.510;8.872;2024-03-02T07:34:30;15.87;;;11.07;;
16310;SDS011;8264;48.510;8.872;2024-03-02T07:36:58;15.83;;;11.70;;
16310;SDS011;8264;48.510;8.872;2024-03-02T07:39:25;17.97;;;11.13;;
16310;SDS011;8264;48.510;8.872;2024-03-02T07:41:52;21.47;;;12.73;;
16310;SDS011;8264;48.510;8.872;2024-03-02T07:44:19;18.73;;;12.33;;
16310;SDS011;8264;48.510;8.872;2024-03-02T07:46:47;20.13;;;14.70;;
16310;SDS011;8264;48.510;8.872;2024-03-02T07:49:16;20.90;;;14.43;;
16310;SDS011;8264;48.510;8.872;2024-03-02T07:51:43;21.53;;;15.57;;
16310;SDS011;8264;48.510;8.872;2024-03-02T07:54:10;20.13;;;14.83;;
16310;SDS011;8264;48.510;8.872;2024-03-02T07:56:36;21.63;;;16.07;;
16310;SDS011;8264;48.510;8.872;2024-03-02T07:59:05;21.17;;;15.83;;
16310;SDS011;8264;48.510;8.872;2024-03-02T08:01:32;33.83;;;22.47;;
16310;SDS011;8264;48.510;8.872;2024-03-02T08:04:02;36.50;;;25.17;;
16310;SDS011;8264;48.510;8.872;2024-03-02T08:06:29;32.20;;;23.53;;
16310;SDS011;8264;48.510;8.872;2024-03-02T08:08:57;34.97;;;23.87;;
16310;SDS011;8264;48.510;8.872;2024-03-02T08:11:24;34.70;;;24.33;;
16310;SDS011;8264;48.510;8.872;2024-03-02T08:13:55;32.10;;;23.30;;
16310;SDS011;8264;48.510;8.872;2024-03-02T08:16:24;27.70;;;21.00;;
16310;SDS011;8264;48.510;8.872;2024-03-02T08:18:53;22.03;;;17.30;;
16310;SDS011;8264;48.510;8.872;2024-03-02T08:21:24;26.33;;;19.13;;
16310;SDS011;8264;48.510;8.872;2024-03-02T08:23:51;26.93;;;19.87;;
16310;SDS011;8264;48.510;8.872;2024-03-02T08:26:20;24.57;;;18.90;;
16310;SDS011;8264;48.510;8.872;2024-03-02T08:28:47;20.80;;;15.83;;
16310;SDS011;8264;48.510;8.872;2024-03-02T08:31:14;21.57;;;15.33;;
16310;SDS011;8264;48.510;8.872;2024-03-02T08:33:41;19.47;;;14.37;;
16310;SDS011;8264;48.510;8.872;2024-03-02T08:36:07;16.57;;;13.50;;
16310;SDS011;8264;48.510;8.872;2024-03-02T08:38:38;20.40;;;13.80;;
16310;SDS011;8264;48.510;8.872;2024-03-02T08:41:07;17.27;;;12.47;;
16310;SDS011;8264;48.510;8.872;2024-03-02T08:43:38;16.40;;;12.43;;
16310;SDS011;8264;48.510;8.872;2024-03-02T08:46:05;15.07;;;12.70;;
16310;SDS011;8264;48.510;8.872;2024-03-02T08:48:33;20.00;;;13.33;;
16310;SDS011;8264;48.510;8.872;2024-03-02T08:51:00;16.90;;;12.80;;
16310;SDS011;8264;48.510;8.872;2024-03-02T08:53:29;15.93;;;12.50;;
16310;SDS011;8264;48.510;8.872;2024-03-02T08:55:57;15.60;;;11.77;;
16310;SDS011;8264;48.510;8.872;2024-03-02T08:58:24;14.97;;;12.07;;
16310;SDS011;8264;48.510;8.872;2024-03-02T09:00:51;15.17;;;11.03;;
16310;SDS011;8264;48.510;8.872;2024-03-02T09:03:18;14.20;;;11.37;;
16310;SDS011;8264;48.510;8.872;2024-03-02T09:05:44;15.03;;;10.57;;
16310;SDS011;8264;48.510;8.872;2024-03-02T09:08:13;13.73;;;11.20;;
16310;SDS011;8264;48.510;8.872;2024-03-02T09:10:40;12.13;;;10.37;;
16310;SDS011;8264;48.510;8.872;2024-03-02T09:13:09;12.00;;;9.63;;
16310;SDS011;8264;48.510;8.872;2024-03-02T09:15:36;10.73;;;8.97;;
16310;SDS011;8264;48.510;8.872;2024-03-02T09:18:05;13.47;;;9.80;;
16310;SDS011;8264;48.510;8.872;2024-03-02T09:20:34;12.47;;;8.90;;
16310;SDS011;8264;48.510;8.872;2024-03-02T09:23:01;12.03;;;9.40;;
16310;SDS011;8264;48.510;8.872;2024-03-02T09:25:29;10.53;;;8.23;;
16310;SDS011;8264;48.510;8.872;2024-03-02T09:27:59;9.77;;;8.43;;
16310;SDS011;8264;48.510;8.872;2024-03-02T09:30:30;9.70;;;8.53;;
16310;SDS011;8264;48.510;8.872;2024-03-02T09:32:57;11.00;;;8.00;;
16310;SDS011;8264;48.510;8.872;2024-03-02T09:35:24;8.70;;;7.70;;
16310;SDS011;8264;48.510;8.872;2024-03-02T09:37:51;8.63;;;6.70;;
16310;SDS011;8264;48.510;8.872;2024-03-02T09:40:21;9.97;;;6.90;;
16310;SDS011;8264;48.510;8.872;2024-03-02T09:42:48;8.53;;;6.23;;
16310;SDS011;8264;48.510;8.872;2024-03-02T09:45:19;7.00;;;6.30;;
16310;SDS011;8264;48.510;8.872;2024-03-02T09:47:56;7.43;;;6.03;;
16310;SDS011;8264;48.510;8.872;2024-03-02T09:50:37;8.17;;;5.90;;
16310;SDS011;8264;48.510;8.872;2024-03-02T09:53:08;6.87;;;6.17;;
16310;SDS011;8264;48.510;8.872;2024-03-02T09:55:49;8.00;;;6.47;;
16310;SDS011;8264;48.510;8.872;2024-03-02T09:58:25;7.53;;;6.23;;
16310;SDS011;8264;48.510;8.872;2024-03-02T10:00:52;7.03;;;5.93;;
16310;SDS011;8264;48.510;8.872;2024-03-02T10:06:18;6.77;;;5.70;;
16310;SDS011;8264;48.510;8.872;2024-03-02T10:08:49;5.73;;;4.63;;
16310;SDS011;8264;48.510;8.872;2024-03-02T10:11:27;5.90;;;5.30;;
16310;SDS011;8264;48.510;8.872;2024-03-02T10:14:15;6.57;;;5.60;;
16310;SDS011;8264;48.510;8.872;2024-03-02T10:16:44;7.47;;;5.97;;
16310;SDS011;8264;48.510;8.872;2024-03-02T10:19:19;6.47;;;5.10;;
16310;SDS011;8264;48.510;8.872;2024-03-02T10:21:48;5.60;;;4.70;;
16310;SDS011;8264;48.510;8.872;2024-03-02T10:24:16;6.30;;;5.60;;
16310;SDS011;8264;48.510;8.872;2024-03-02T10:26:57;7.33;;;4.77;;
16310;SDS011;8264;48.510;8.872;2024-03-02T10:29:25;6.40;;;5.30;;
16310;SDS011;8264;48.510;8.872;2024-03-02T10:31:58;6.83;;;5.50;;
16310;SDS011;8264;48.510;8.872;2024-03-02T10:34:31;6.73;;;5.00;;
16310;SDS011;8264;48.510;8.872;2024-03-02T10:37:10;5.10;;;4.47;;
16310;SDS011;8264;48.510;8.872;2024-03-02T10:39:38;5.77;;;5.17;;
16310;SDS011;8264;48.510;8.872;2024-03-02T10:42:20;7.07;;;5.13;;
16310;SDS011;8264;48.510;8.872;2024-03-02T10:45:07;5.77;;;5.20;;
16310;SDS011;8264;48.510;8.872;2024-03-02T10:47:44;5.10;;;4.37;;
16310;SDS011;8264;48.510;8.872;2024-03-02T10:50:43;5.63;;;5.03;;
16310;SDS011;8264;48.510;8.872;2024-03-02T10:53:10;6.37;;;5.33;;
16310;SDS011;8264;48.510;8.872;2024-03-02T10:55:38;5.17;;;4.67;;
16310;SDS011;8264;48.510;8.872;2024-03-02T10:58:11;5.20;;;4.70;;
16310;SDS011;8264;48.510;8.872;2024-03-02T11:00:56;6.13;;;5.13;;
16310;SDS011;8264;48.510;8.872;2024-03-02T11:03:45;6.90;;;4.33;;
16310;SDS011;8264;48.510;8.872;2024-03-02T11:06:40;4.80;;;4.27;;
16310;SDS011;8264;48.510;8.872;2024-03-02T11:09:26;6.13;;;4.50;;
16310;SDS011;8264;48.510;8.872;2024-03-02T11:12:03;5.03;;;4.30;;
16310;SDS011;8264;48.510;8.872;2024-03-02T11:14:52;5.00;;;4.00;;
16310;SDS011;8264;48.510;8.872;2024-03-02T11:17:39;8.63;;;5.70;;
16310;SDS011;8264;48.510;8.872;2024-03-02T11:20:21;4.27;;;3.87;;
16310;SDS011;8264;48.510;8.872;2024-03-02T11:36:10;4.00;;;3.13;;
16310;SDS011;8264;48.510;8.872;2024-03-02T11:38:44;3.63;;;2.53;;
16310;SDS011;8264;48.510;8.872;2024-03-02T11:41:23;3.50;;;2.60;;
16310;SDS011;8264;48.510;8.872;2024-03-02T11:44:29;4.50;;;3.10;;
16310;SDS011;8264;48.510;8.872;2024-03-02T12:04:59;3.73;;;1.70;;
16310;SDS011;8264;48.510;8.872;2024-03-02T12:08:08;1.57;;;1.43;;
16310;SDS011;8264;48.510;8.872;2024-03-02T12:14:33;1.83;;;1.63;;
16310;SDS011;8264;48.510;8.872;2024-03-02T12:17:55;2.40;;;1.70;;
16310;SDS011;8264;48.510;8.872;2024-03-02T12:24:30;3.27;;;2.37;;
16310;SDS011;8264;48.510;8.872;2024-03-02T12:27:27;2.10;;;1.70;;
16310;SDS011;8264;48.510;8.872;2024-03-02T12:30:37;3.27;;;1.77;;
16310;SDS011;8264;48.510;8.872;2024-03-02T12:33:43;3.47;;;1.83;;
16310;SDS011;8264;48.510;8.872;2024-03-02T12:45:52;2.83;;;2.00;;
16310;SDS011;8264;48.510;8.872;2024-03-02T12:49:04;2.27;;;2.00;;
16310;SDS011;8264;48.510;8.872;2024-03-02T12:52:18;3.83;;;2.17;;
16310;SDS011;8264;48.510;8.872;2024-03-02T12:55:31;4.20;;;1.93;;
16310;SDS011;8264;48.510;8.872;2024-03-02T13:32:19;2.80;;;1.53;;
16310;SDS011;8264;48.510;8.872;2024-03-02T13:35:14;1.53;;;1.40;;
16310;SDS011;8264;48.510;8.872;2024-03-02T13:41:47;2.13;;;1.73;;
16310;SDS011;8264;48.510;8.872;2024-03-02T13:44:41;2.17;;;1.73;;
16310;SDS011;8264;48.510;8.872;2024-03-02T14:04:07;2.80;;;2.03;;
16310;SDS011;8264;48.510;8.872;2024-03-02T14:06:51;2.97;;;2.37;;
16310;SDS011;8264;48.510;8.872;2024-03-02T14:09:46;2.40;;;1.50;;
16310;SDS011;8264;48.510;8.872;2024-03-02T14:12:46;1.60;;;1.10;;
16310;SDS011;8264;48.510;8.872;2024-03-02T14:15:52;2.07;;;1.70;;
16310;SDS011;8264;48.510;8.872;2024-03-02T14:18:38;5.37;;;3.17;;
16310;SDS011;8264;48.510;8.872;2024-03-02T14:24:12;3.03;;;2.37;;
16310;SDS011;8264;48.510;8.872;2024-03-02T14:26:42;3.67;;;2.17;;
16310;SDS011;8264;48.510;8.872;2024-03-02T14:29:10;2.73;;;1.50;;
16310;SDS011;8264;48.510;8.872;2024-03-02T14:31:53;1.90;;;1.80;;
16310;SDS011;8264;48.510;8.872;2024-03-02T14:34:29;2.50;;;1.53;;
16310;SDS011;8264;48.510;8.872;2024-03-02T14:37:14;3.47;;;2.10;;
16310;SDS011;8264;48.510;8.872;2024-03-02T14:39:49;1.60;;;1.37;;
16310;SDS011;8264;48.510;8.872;2024-03-02T14:42:22;1.60;;;1.37;;
16310;SDS011;8264;48.510;8.872;2024-03-02T14:45:07;1.83;;;1.67;;
16310;SDS011;8264;48.510;8.872;2024-03-02T14:47:49;1.60;;;1.33;;
16310;SDS011;8264;48.510;8.872;2024-03-02T14:50:25;1.23;;;1.13;;
16310;SDS011;8264;48.510;8.872;2024-03-02T15:06:25;2.43;;;1.30;;
16310;SDS011;8264;48.510;8.872;2024-03-02T15:09:15;1.60;;;1.20;;
16310;SDS011;8264;48.510;8.872;2024-03-02T15:12:00;2.77;;;1.13;;
16310;SDS011;8264;48.510;8.872;2024-03-02T15:14:57;1.10;;;0.93;;
16310;SDS011;8264;48.510;8.872;2024-03-02T15:17:40;1.10;;;1.00;;
16310;SDS011;8264;48.510;8.872;2024-03-02T15:20:34;4.97;;;1.00;;
16310;SDS011;8264;48.510;8.872;2024-03-02T15:23:50;2.60;;;0.93;;
16310;SDS011;8264;48.510;8.872;2024-03-02T15:26:43;2.90;;;2.00;;
16310;SDS011;8264;48.510;8.872;2024-03-02T15:29:50;1.53;;;1.17;;
16310;SDS011;8264;48.510;8.872;2024-03-02T15:32:43;1.90;;;1.30;;
16310;SDS011;8264;48.510;8.872;2024-03-02T15:35:36;5.17;;;2.47;;
16310;SDS011;8264;48.510;8.872;2024-03-02T15:38:32;2.60;;;1.23;;
16310;SDS011;8264;48.510;8.872;2024-03-02T15:54:42;3.47;;;2.83;;
16310;SDS011;8264;48.510;8.872;2024-03-02T15:57:24;2.93;;;2.33;;
16310;SDS011;8264;48.510;8.872;2024-03-02T16:00:25;4.00;;;1.90;;
16310;SDS011;8264;48.510;8.872;2024-03-02T16:03:24;2.40;;;1.60;;
16310;SDS011;8264;48.510;8.872;2024-03-02T16:06:26;7.77;;;5.30;;
16310;SDS011;8264;48.510;8.872;2024-03-02T16:15:12;2.53;;;1.67;;
16310;SDS011;8264;48.510;8.872;2024-03-02T16:17:58;3.20;;;1.00;;
16310;SDS011;8264;48.510;8.872;2024-03-02T16:20:39;1.10;;;1.00;;
16310;SDS011;8264;48.510;8.872;2024-03-02T16:23:10;5.73;;;1.40;;
16310;SDS011;8264;48.510;8.872;2024-03-02T16:25:43;3.23;;;1.30;;
16310;SDS011;8264;48.510;8.872;2024-03-02T16:28:28;1.80;;;1.37;;
16310;SDS011;8264;48.510;8.872;2024-03-02T16:31:08;3.80;;;1.73;;
16310;SDS011;8264;48.510;8.872;2024-03-02T16:37:14;4.73;;;4.33;;
16310;SDS011;8264;48.510;8.872;2024-03-02T16:39:55;2.80;;;2.43;;
16310;SDS011;8264;48.510;8.872;2024-03-02T16:42:28;4.33;;;2.60;;
16310;SDS011;8264;48.510;8.872;2024-03-02T16:45:05;4.23;;;2.80;;
16310;SDS011;8264;48.510;8.872;2024-03-02T16:47:40;5.77;;;3.50;;
16310;SDS011;8264;48.510;8.872;2024-03-02T16:53:01;1.70;;;1.60;;
16310;SDS011;8264;48.510;8.872;2024-03-02T16:55:33;2.43;;;1.53;;
16310;SDS011;8264;48.510;8.872;2024-03-02T16:58:15;1.53;;;1.33;;
16310;SDS011;8264;48.510;8.872;2024-03-02T17:00:57;4.10;;;2.60;;
16310;SDS011;8264;48.510;8.872;2024-03-02T17:03:49;3.23;;;2.37;;
16310;SDS011;8264;48.510;8.872;2024-03-02T17:06:24;3.47;;;2.47;;
16310;SDS011;8264;48.510;8.872;2024-03-02T17:09:08;2.77;;;2.50;;
16310;SDS011;8264;48.510;8.872;2024-03-02T17:11:58;3.47;;;2.80;;
16310;SDS011;8264;48.510;8.872;2024-03-02T17:14:32;3.50;;;3.20;;
16310;SDS011;8264;48.510;8.872;2024-03-02T17:17:01;3.37;;;3.03;;
16310;SDS011;8264;48.510;8.872;2024-03-02T17:19:41;5.00;;;3.50;;
16310;SDS011;8264;48.510;8.872;2024-03-02T17:22:15;4.73;;;3.17;;
16310;SDS011;8264;48.510;8.872;2024-03-02T17:28:25;2.23;;;2.00;;
16310;SDS011;8264;48.510;8.872;2024-03-02T17:30:57;4.50;;;1.77;;
16310;SDS011;8264;48.510;8.872;2024-03-02T17:33:32;2.77;;;1.87;;
16310;SDS011;8264;48.510;8.872;2024-03-02T17:36:06;5.10;;;1.77;;
16310;SDS011;8264;48.510;8.872;2024-03-02T17:38:35;4.07;;;2.03;;
16310;SDS011;8264;48.510;8.872;2024-03-02T17:41:05;2.30;;;1.70;;
16310;SDS011;8264;48.510;8.872;2024-03-02T17:43:37;2.57;;;1.70;;
16310;SDS011;8264;48.510;8.872;2024-03-02T17:46:07;1.53;;;1.43;;
16310;SDS011;8264;48.510;8.872;2024-03-02T17:48:42;2.93;;;1.70;;
16310;SDS011;8264;48.510;8.872;2024-03-02T17:51:16;1.97;;;1.50;;
16310;SDS011;8264;48.510;8.872;2024-03-02T17:53:52;3.90;;;1.90;;
16310;SDS011;8264;48.510;8.872;2024-03-02T17:56:36;4.50;;;1.97;;
16310;SDS011;8264;48.510;8.872;2024-03-02T17:59:07;2.77;;;2.10;;